PADL

Details ICAO PADL (DLG)
Name DILLINGHAM
Region USA (Alaska)
Timezone America/Anchorage (UTC-8.0)
Plans Departing 6
Arriving 12
Stats Elevation 74 ft / 23 m (AMSL)
Location 59.044674° -158.505513°
Runways 1
Magnetic Variation 12.637° E
Sunrise 2018-05-24 13:45:42 UTC / 2018-05-24 05:45:42 Local
Sunset 2018-05-25 07:18:58 UTC / 2018-05-24 23:18:58 Local
Advertisement - Login to hide

Runways

ID Width Length Bearing (true) Bearing (mag) Surface Threshold Offset Overrun Length
01 151 ft / 46 m 6,389 ft / 1,947 m 26.44° 13.80° Asphalt 0 ft / 0 m 0 ft / 0 m
19 151 ft / 46 m 6,389 ft / 1,947 m 206.45° 193.81° Asphalt 0 ft / 0 m 0 ft / 0 m

Approach Navaids

Runway Type Ident Frequency Range Bearing (true) Bearing (mag) Slope Elevation
19 Localiser IDLG 111.90 MHz 18 nm / 33 km 206.44° 193.80° - 53 ft / 16 m (AMSL)
19 DME IDLG 111.90 MHz 18 nm / 33 km - - - 72 ft / 22 m (AMSL)

Map

Weather


0- 5 10 15 20 25 30 35+ Temperature / ° C

Clouds and Precipitation
Forecast for 2018-05-25 06:00 UTC. Updated 2 hours ago

Ground ~20,000 ft ~40,000 ft Winds

METAR

PADL 250656Z AUTO 00000KT 10SM FEW055 OVC075 08/06 A2970

TAF

PADL 250539Z 2506/2606 VRB06KT P6SM VCSH FEW050 BKN120 FM251100 VRB05KT P6SM VCFG SCT002 TEMPO 2512/2516 3SM BR BKN002 FM251700 36008KT P6SM SCT150

Frequencies

Recorded 125.00 MHz ATIS
Unicom 123.60 MHz CTAF
Recorded 135.55 MHz AWOS 3
Warning: Do not use this data for real-world aviation or navigation. No guarantee of current accuracy is given.